Česky Dansk Deutsch English Español Suomi Français Magyar Italiano Nederlands norsk Polski Português svenska Türkçe

 

Het Weer

Durban, Durban International Airport (Zuid Afrika)

08:00, 5 mei 2010 (GMT)

NWNNE
WE
SWSSE
Home            
Durban, Durban International Airport Durban/Virginia Pietermaritzburg Greytown Margate Richard Bay Ulundi Ladysmith Port St Johns Vryheid Newcastle Umtata Bethlehem Airport Maseru / Moshoeshoe Maseru-Mia Standerton Manzini / Matsapa Airport Frankfort Ermelo Aliwal North Carolina Queenstown East London, East London Airport

Om een weerknop op uw website of weblog te plaatsen, copieer onderstaande code en plak die in uw pagina. In het eerste vakje staat HTML-code, in het tweede vakje UBB-code.


Add to Google

Details

Wind speed:3 bf, 8 kn, 4.1 m/s, 9.2 miles/h, 14.8 km/h
Wind direction:SSW, 200°
Het Weer:moderate
moderate
moderate
Temperature:26°C, 79°F
Gefühlte Temperatur:27°C, 81°F
Dew-point:20°C, 68°F
Atmospheric pressure:1011 hPa, 758.3 mmHg, 29.85 inHg, 0.998 atm
Relative humidity:69.6 %
METAR:FADN 050800Z AUTO 20008KT 26/20 Q1011

Snelkoppelingen

Actuele weersinformatie van de hele wereld. Voeg locaties toe met het plus (+) symbool. Deze snelkoppelingen kunnen worden toegevoegd aan Google.

Lid van de Technetium groep

website free tracking
StatCounter NetStat W3C Validator

14-08-2018 08:04:57
astro.technetium.be money.technetium.be phote.technetium.be tafeltennistafel.technetium.be www.ligfiets.net